Time;durP1;ratioP1;P1;durP2;ratioP2;P2;SDS_P1;SDS_P2;PMS_P1;PMS_P2;Temp;Humidity;BMP_temperature;BMP_pressure;BME280_temperature;BME280_humidity;BME280_pressure;Samples;Min_cycle;Max_cycle;Signal;HPM_P1;HPM_P2
2021/12/03 00:02:14;;;;;;;7.70;5.28;;;;;;;;;;5132845;27;20152;-76
2021/12/03 00:04:41;;;;;;;7.55;5.45;;;;;;;;;;5146542;27;20023;-76
2021/12/03 00:07:07;;;;;;;7.90;5.32;;;;;;;;;;5134960;27;20061;-79
2021/12/03 00:09:36;;;;;;;9.63;5.47;;;;;;;;;;5131148;27;20070;-78
2021/12/03 00:12:02;;;;;;;10.68;6.60;;;;;;;;;;5129249;27;20019;-78
2021/12/03 00:14:28;;;;;;;6.38;5.32;;;;;;;;;;5131524;27;20024;-78
2021/12/03 00:16:54;;;;;;;6.70;5.03;;;;;;;;;;5128854;27;20474;-81
2021/12/03 00:19:21;;;;;;;10.80;6.32;;;;;;;;;;5140133;27;20049;-76
2021/12/03 00:21:47;;;;;;;8.38;5.75;;;;;;;;;;5117950;27;20020;-76
2021/12/03 00:24:13;;;;;;;8.95;5.95;;;;;;;;;;5129622;27;20031;-77
2021/12/03 00:26:39;;;;;;;9.38;6.10;;;;;;;;;;5112187;27;20107;-78
2021/12/03 00:29:05;;;;;;;10.10;5.30;;;;;;;;;;5132914;27;20019;-77
2021/12/03 00:31:31;;;;;;;9.43;5.55;;;;;;;;;;5131230;27;20493;-77
2021/12/03 00:33:58;;;;;;;8.75;6.45;;;;;;;;;;5118726;27;20035;-78
2021/12/03 00:36:25;;;;;;;11.95;6.18;;;;;;;;;;5131261;27;20029;-76
2021/12/03 00:38:55;;;;;;;12.85;7.25;;;;;;;;;;5129713;27;20067;-79
2021/12/03 00:41:22;;;;;;;10.88;6.65;;;;;;;;;;5148843;27;20096;-80
2021/12/03 00:43:51;;;;;;;11.13;6.85;;;;;;;;;;5129553;27;20029;-75
2021/12/03 00:46:18;;;;;;;11.18;6.20;;;;;;;;;;5129246;27;20023;-77
2021/12/03 00:48:45;;;;;;;9.48;6.97;;;;;;;;;;5134615;27;20030;-77
2021/12/03 00:51:12;;;;;;;11.48;6.65;;;;;;;;;;5126821;27;20073;-77
2021/12/03 00:53:39;;;;;;;15.35;9.35;;;;;;;;;;5148741;27;20023;-77
2021/12/03 00:56:06;;;;;;;24.92;15.63;;;;;;;;;;5131157;27;20031;-75
2021/12/03 00:58:32;;;;;;;13.05;7.28;;;;;;;;;;5148181;27;20413;-76
2021/12/03 01:00:58;;;;;;;34.97;19.85;;;;;;;;;;5126691;28;20083;-77
2021/12/03 01:03:24;;;;;;;14.55;9.80;;;;;;;;;;5127964;28;20034;-75
2021/12/03 01:05:50;;;;;;;14.30;8.90;;;;;;;;;;5126720;28;20612;-77
2021/12/03 01:08:16;;;;;;;23.13;15.07;;;;;;;;;;5128312;28;20031;-78
2021/12/03 01:10:42;;;;;;;17.30;10.98;;;;;;;;;;5145340;27;20051;-76
2021/12/03 01:13:09;;;;;;;18.83;12.30;;;;;;;;;;5116024;27;20034;-76
2021/12/03 01:15:36;;;;;;;13.30;7.25;;;;;;;;;;5149050;27;20020;-76
2021/12/03 01:18:03;;;;;;;13.23;7.43;;;;;;;;;;5148834;27;20080;-75
2021/12/03 01:20:30;;;;;;;15.20;8.75;;;;;;;;;;5129200;27;20016;-80
2021/12/03 01:22:57;;;;;;;14.65;8.63;;;;;;;;;;5132301;27;20011;-75
2021/12/03 01:25:23;;;;;;;13.35;8.52;;;;;;;;;;5131231;27;20028;-77
2021/12/03 01:27:50;;;;;;;13.32;8.10;;;;;;;;;;5148976;27;20038;-78
2021/12/03 01:30:17;;;;;;;16.30;8.52;;;;;;;;;;5131209;27;20038;-77
2021/12/03 01:32:44;;;;;;;17.70;9.95;;;;;;;;;;5130574;27;20086;-77
2021/12/03 01:35:11;;;;;;;15.30;9.10;;;;;;;;;;5125190;28;20085;-77
2021/12/03 01:37:37;;;;;;;15.07;9.05;;;;;;;;;;5128222;28;20036;-78
2021/12/03 01:40:05;;;;;;;16.10;9.98;;;;;;;;;;5126955;28;20027;-76
2021/12/03 01:42:31;;;;;;;14.32;8.68;;;;;;;;;;5109956;28;20027;-76
2021/12/03 01:44:57;;;;;;;17.98;10.20;;;;;;;;;;5132410;27;20043;-77
2021/12/03 01:47:23;;;;;;;16.33;10.40;;;;;;;;;;5121937;28;20019;-75
2021/12/03 01:49:49;;;;;;;13.52;8.93;;;;;;;;;;5121358;27;20034;-76
2021/12/03 01:52:15;;;;;;;14.90;9.02;;;;;;;;;;5148584;27;20057;-79
2021/12/03 01:54:41;;;;;;;13.90;8.48;;;;;;;;;;5148391;27;20023;-75
2021/12/03 01:57:07;;;;;;;12.57;7.35;;;;;;;;;;5130449;27;20047;-75
2021/12/03 01:59:34;;;;;;;14.32;8.63;;;;;;;;;;5129540;27;20114;-76
2021/12/03 02:02:00;;;;;;;11.27;7.22;;;;;;;;;;5149010;27;20043;-76
2021/12/03 02:04:26;;;;;;;13.45;8.10;;;;;;;;;;5148929;27;20067;-75
2021/12/03 02:06:52;;;;;;;9.57;6.82;;;;;;;;;;5148772;27;20035;-77
2021/12/03 02:09:19;;;;;;;8.98;5.80;;;;;;;;;;5148581;27;20035;-77
2021/12/03 02:11:45;;;;;;;5.53;4.00;;;;;;;;;;5148525;27;20478;-75
2021/12/03 02:14:11;;;;;;;4.30;3.30;;;;;;;;;;5148212;27;20023;-77
2021/12/03 02:16:38;;;;;;;4.18;3.08;;;;;;;;;;5148610;27;20031;-78
2021/12/03 02:19:04;;;;;;;3.63;2.78;;;;;;;;;;5148515;27;20023;-76
2021/12/03 02:21:30;;;;;;;3.25;2.63;;;;;;;;;;5148666;27;20031;-79
2021/12/03 02:23:57;;;;;;;3.03;2.30;;;;;;;;;;5145711;28;20027;-75
2021/12/03 02:26:23;;;;;;;2.50;2.17;;;;;;;;;;5130109;28;20029;-76
2021/12/03 02:28:51;;;;;;;3.58;2.00;;;;;;;;;;5110651;28;20091;-76
2021/12/03 02:31:19;;;;;;;2.22;2.00;;;;;;;;;;5149101;28;20027;-76
2021/12/03 02:33:45;;;;;;;2.67;1.70;;;;;;;;;;5137794;28;20088;-75
2021/12/03 02:36:11;;;;;;;1.70;1.60;;;;;;;;;;5131226;28;20435;-76
2021/12/03 02:38:38;;;;;;;1.48;1.38;;;;;;;;;;5148018;28;20067;-75
2021/12/03 02:41:04;;;;;;;1.42;1.33;;;;;;;;;;5148625;28;20038;-74
2021/12/03 02:43:31;;;;;;;1.95;1.80;;;;;;;;;;5148229;28;20074;-76
2021/12/03 02:45:57;;;;;;;2.40;1.42;;;;;;;;;;5130350;28;20057;-76
2021/12/03 02:48:24;;;;;;;1.55;1.27;;;;;;;;;;5148534;28;20047;-75
2021/12/03 02:50:50;;;;;;;1.52;1.20;;;;;;;;;;5148151;28;20454;-76
2021/12/03 02:53:17;;;;;;;1.50;1.40;;;;;;;;;;5148507;28;20028;-77
2021/12/03 02:55:43;;;;;;;1.40;1.20;;;;;;;;;;5148438;28;20056;-75
2021/12/03 02:58:09;;;;;;;2.10;1.20;;;;;;;;;;5148144;28;20051;-75
2021/12/03 03:00:36;;;;;;;1.88;1.30;;;;;;;;;;5148306;27;20023;-74
2021/12/03 03:03:02;;;;;;;2.47;1.30;;;;;;;;;;5152038;27;20094;-76
2021/12/03 03:05:28;;;;;;;4.13;2.22;;;;;;;;;;5152322;27;20019;-75
2021/12/03 03:07:55;;;;;;;3.35;1.33;;;;;;;;;;5133778;27;20034;-78
2021/12/03 03:10:27;;;;;;;3.28;1.60;;;;;;;;;;5152338;27;20023;-77
2021/12/03 03:12:53;;;;;;;1.10;1.10;;;;;;;;;;5152328;27;20080;-76
2021/12/03 03:15:20;;;;;;;2.53;1.40;;;;;;;;;;5152514;27;20027;-76
2021/12/03 03:17:46;;;;;;;1.88;1.30;;;;;;;;;;5152025;27;20031;-78
2021/12/03 03:20:12;;;;;;;2.00;1.42;;;;;;;;;;5137293;27;20024;-74
2021/12/03 03:22:39;;;;;;;2.97;1.58;;;;;;;;;;5149924;27;20036;-77
2021/12/03 03:25:06;;;;;;;1.77;1.30;;;;;;;;;;5151646;27;20015;-76
2021/12/03 03:27:32;;;;;;;1.60;1.50;;;;;;;;;;5141919;27;20383;-78
2021/12/03 03:29:59;;;;;;;3.40;1.42;;;;;;;;;;5131641;28;20071;-77
2021/12/03 03:32:25;;;;;;;1.60;1.45;;;;;;;;;;5131061;28;20386;-75
2021/12/03 03:34:52;;;;;;;2.88;1.60;;;;;;;;;;5130846;28;20110;-75
2021/12/03 03:37:18;;;;;;;2.03;1.67;;;;;;;;;;5130893;28;20426;-75
2021/12/03 03:39:45;;;;;;;7.35;2.53;;;;;;;;;;5131197;28;20039;-75
2021/12/03 03:42:11;;;;;;;3.05;2.00;;;;;;;;;;5145988;27;20019;-76
2021/12/03 03:44:37;;;;;;;2.50;1.80;;;;;;;;;;5151103;27;20012;-76
2021/12/03 03:47:05;;;;;;;1.88;1.50;;;;;;;;;;5132678;27;20030;-76
2021/12/03 03:49:33;;;;;;;4.13;1.80;;;;;;;;;;5132821;27;20064;-77
2021/12/03 03:52:00;;;;;;;6.53;3.28;;;;;;;;;;5150470;27;20031;-76
2021/12/03 03:54:26;;;;;;;10.05;2.78;;;;;;;;;;5133976;27;20093;-75
2021/12/03 03:56:52;;;;;;;10.57;2.78;;;;;;;;;;5147354;27;20027;-75
2021/12/03 03:59:18;;;;;;;3.75;1.67;;;;;;;;;;5130629;28;20031;-76
2021/12/03 04:01:46;;;;;;;5.93;2.17;;;;;;;;;;5128062;28;20501;-78
2021/12/03 04:04:12;;;;;;;6.88;2.50;;;;;;;;;;5111802;28;20068;-76
2021/12/03 04:06:38;;;;;;;7.22;2.15;;;;;;;;;;5146881;27;20034;-76
2021/12/03 04:09:04;;;;;;;7.43;2.60;;;;;;;;;;5140673;27;20091;-78
2021/12/03 04:11:30;;;;;;;7.55;2.20;;;;;;;;;;5146392;27;20032;-78
2021/12/03 04:13:56;;;;;;;5.55;2.33;;;;;;;;;;5136704;27;20027;-77
2021/12/03 04:16:23;;;;;;;5.07;2.10;;;;;;;;;;5115735;28;20022;-76
2021/12/03 04:18:49;;;;;;;6.45;2.47;;;;;;;;;;5149187;27;20042;-78
2021/12/03 04:21:15;;;;;;;8.02;2.53;;;;;;;;;;5132053;27;20059;-76
2021/12/03 04:23:42;;;;;;;10.65;2.85;;;;;;;;;;5148744;27;19999;-77
2021/12/03 04:26:08;;;;;;;8.38;2.28;;;;;;;;;;5130918;27;20015;-76
2021/12/03 04:28:34;;;;;;;7.22;2.92;;;;;;;;;;5149465;27;20027;-76
2021/12/03 04:31:01;;;;;;;8.10;2.22;;;;;;;;;;5143641;27;20028;-80
2021/12/03 04:33:27;;;;;;;9.82;2.85;;;;;;;;;;5129128;28;20019;-77
2021/12/03 04:35:53;;;;;;;6.78;2.67;;;;;;;;;;5127831;28;20113;-76
2021/12/03 04:38:20;;;;;;;4.65;2.45;;;;;;;;;;5128450;28;20052;-77
2021/12/03 04:40:46;;;;;;;9.00;2.60;;;;;;;;;;5128688;28;20055;-75
2021/12/03 04:43:12;;;;;;;10.85;2.97;;;;;;;;;;5131752;27;20036;-77
2021/12/03 04:45:38;;;;;;;6.68;2.42;;;;;;;;;;5149209;27;20035;-80
2021/12/03 04:48:05;;;;;;;7.63;2.30;;;;;;;;;;5135849;27;20073;-77
2021/12/03 04:50:33;;;;;;;6.20;2.33;;;;;;;;;;5128550;27;20090;-78
2021/12/03 04:52:59;;;;;;;6.95;2.88;;;;;;;;;;5147333;27;20027;-76
2021/12/03 04:55:26;;;;;;;6.82;2.85;;;;;;;;;;5148101;27;20482;-73
2021/12/03 04:57:53;;;;;;;9.02;2.40;;;;;;;;;;5118358;28;20030;-76
2021/12/03 05:00:25;;;;;;;9.48;3.55;;;;;;;;;;5127768;28;20470;-78
2021/12/03 05:02:53;;;;;;;5.60;2.40;;;;;;;;;;5148242;27;20047;-77
2021/12/03 05:05:19;;;;;;;11.05;4.32;;;;;;;;;;5141594;27;20098;-76
2021/12/03 05:07:57;;;;;;;6.97;2.30;;;;;;;;;;5141675;27;20027;-77
2021/12/03 05:10:25;;;;;;;13.75;3.25;;;;;;;;;;5129422;27;20023;-76
2021/12/03 05:12:51;;;;;;;16.08;2.53;;;;;;;;;;5148601;27;20024;-76
2021/12/03 05:15:18;;;;;;;11.20;2.58;;;;;;;;;;5146717;27;20023;-78
2021/12/03 05:17:44;;;;;;;6.28;2.20;;;;;;;;;;5129158;27;20019;-77
2021/12/03 05:20:10;;;;;;;10.23;2.78;;;;;;;;;;5131771;27;20034;-78
2021/12/03 05:22:36;;;;;;;7.10;2.85;;;;;;;;;;5144048;27;20019;-77
2021/12/03 05:25:03;;;;;;;9.23;3.05;;;;;;;;;;5126163;28;20035;-76
2021/12/03 05:27:29;;;;;;;13.80;2.92;;;;;;;;;;5128197;28;20028;-78
2021/12/03 05:29:55;;;;;;;10.73;2.75;;;;;;;;;;5127392;28;20019;-77
2021/12/03 05:32:21;;;;;;;9.48;3.10;;;;;;;;;;5144090;27;20110;-76
2021/12/03 05:34:47;;;;;;;12.40;3.00;;;;;;;;;;5127239;28;20050;-75
2021/12/03 05:37:13;;;;;;;12.13;3.40;;;;;;;;;;5126783;28;20104;-78
2021/12/03 05:39:39;;;;;;;13.00;3.05;;;;;;;;;;5128213;27;20042;-78
2021/12/03 05:42:06;;;;;;;6.47;3.08;;;;;;;;;;5141166;27;20044;-78
2021/12/03 05:44:32;;;;;;;7.00;3.08;;;;;;;;;;5129687;27;20055;-80
2021/12/03 05:46:59;;;;;;;12.07;3.10;;;;;;;;;;5143758;27;20028;-79
2021/12/03 05:49:25;;;;;;;12.75;3.15;;;;;;;;;;5131799;27;20034;-79
2021/12/03 05:51:51;;;;;;;10.63;3.03;;;;;;;;;;5143138;27;20020;-77
2021/12/03 05:54:19;;;;;;;11.50;2.67;;;;;;;;;;5127094;28;20085;-78
2021/12/03 05:56:45;;;;;;;9.38;3.03;;;;;;;;;;5126967;27;20023;-76
2021/12/03 05:59:11;;;;;;;13.98;3.10;;;;;;;;;;5147234;27;20061;-77
2021/12/03 06:01:37;;;;;;;9.77;3.47;;;;;;;;;;5128594;27;20050;-76
2021/12/03 06:04:03;;;;;;;8.70;2.97;;;;;;;;;;5128797;27;20118;-76
2021/12/03 06:06:29;;;;;;;11.75;4.25;;;;;;;;;;5146732;27;20023;-75
2021/12/03 06:08:58;;;;;;;10.52;3.17;;;;;;;;;;5141692;27;20023;-76
2021/12/03 06:11:24;;;;;;;10.10;4.38;;;;;;;;;;5138733;27;20026;-80
2021/12/03 06:13:50;;;;;;;16.63;3.60;;;;;;;;;;5134728;27;20031;-76
2021/12/03 06:16:16;;;;;;;9.13;2.83;;;;;;;;;;5124894;28;20037;-77
2021/12/03 06:18:42;;;;;;;13.82;3.58;;;;;;;;;;5126545;28;20030;-76
2021/12/03 06:21:10;;;;;;;10.68;3.58;;;;;;;;;;5131262;27;20034;-77
2021/12/03 06:23:36;;;;;;;10.48;3.20;;;;;;;;;;5123398;28;20019;-77
2021/12/03 06:26:03;;;;;;;12.88;2.92;;;;;;;;;;5128178;28;20027;-80
2021/12/03 06:28:30;;;;;;;9.93;2.97;;;;;;;;;;5146579;28;20042;-77
2021/12/03 06:30:56;;;;;;;8.45;3.30;;;;;;;;;;5147076;28;20027;-76
2021/12/03 06:33:22;;;;;;;6.88;2.85;;;;;;;;;;5138821;28;20039;-78
2021/12/03 06:35:49;;;;;;;10.57;3.35;;;;;;;;;;5142609;27;20038;-77
2021/12/03 06:38:16;;;;;;;13.20;4.05;;;;;;;;;;5135299;27;20036;-77
2021/12/03 06:40:42;;;;;;;20.38;4.78;;;;;;;;;;5146631;27;20072;-75
2021/12/03 06:43:08;;;;;;;11.30;2.78;;;;;;;;;;5138380;27;20024;-75
2021/12/03 06:45:34;;;;;;;7.95;2.72;;;;;;;;;;5129228;28;20012;-78
2021/12/03 06:48:00;;;;;;;10.55;4.13;;;;;;;;;;5132479;27;20038;-77
2021/12/03 06:50:28;;;;;;;12.45;3.67;;;;;;;;;;5131129;27;20087;-80
2021/12/03 06:53:02;;;;;;;9.18;2.85;;;;;;;;;;5126734;28;20027;-78
2021/12/03 06:55:29;;;;;;;9.25;2.75;;;;;;;;;;5136939;27;20065;-78
2021/12/03 06:57:55;;;;;;;9.02;3.10;;;;;;;;;;5149663;27;20074;-75
2021/12/03 07:00:22;;;;;;;7.30;3.03;;;;;;;;;;5134235;27;20055;-78
2021/12/03 07:02:49;;;;;;;7.18;3.17;;;;;;;;;;5132476;27;20047;-79
2021/12/03 07:05:15;;;;;;;9.30;3.30;;;;;;;;;;5143024;27;20117;-76
2021/12/03 07:07:41;;;;;;;9.20;2.55;;;;;;;;;;5140205;27;20059;-80
2021/12/03 07:10:08;;;;;;;9.52;2.83;;;;;;;;;;5149998;27;20019;-78
2021/12/03 07:12:34;;;;;;;8.18;2.70;;;;;;;;;;5133076;27;20028;-76
2021/12/03 07:15:00;;;;;;;10.18;3.58;;;;;;;;;;5148998;27;20019;-76
2021/12/03 07:17:32;;;;;;;7.68;3.83;;;;;;;;;;5150532;27;20050;-80
2021/12/03 07:20:01;;;;;;;6.70;3.92;;;;;;;;;;5137542;27;20024;-77
2021/12/03 07:22:28;;;;;;;10.13;2.55;;;;;;;;;;5134418;27;20034;-77
2021/12/03 07:24:54;;;;;;;11.02;3.08;;;;;;;;;;5149915;27;20103;-75
2021/12/03 07:27:21;;;;;;;11.18;3.20;;;;;;;;;;5126613;27;20019;-76
2021/12/03 07:29:48;;;;;;;9.82;4.07;;;;;;;;;;5137401;27;20466;-76
2021/12/03 07:32:16;;;;;;;8.15;3.33;;;;;;;;;;5127909;28;20016;-77
2021/12/03 07:34:42;;;;;;;10.65;3.00;;;;;;;;;;5131055;27;20027;-80
2021/12/03 07:37:08;;;;;;;15.02;3.38;;;;;;;;;;5142691;27;20052;-78
2021/12/03 07:39:35;;;;;;;4.22;2.58;;;;;;;;;;5138312;27;20019;-76
2021/12/03 07:42:01;;;;;;;7.28;2.38;;;;;;;;;;5141948;27;20095;-76
2021/12/03 07:44:27;;;;;;;10.52;3.08;;;;;;;;;;5149143;27;20026;-79
2021/12/03 07:46:53;;;;;;;9.18;2.50;;;;;;;;;;5148672;27;20034;-77
2021/12/03 07:49:21;;;;;;;6.43;2.85;;;;;;;;;;5129873;27;20038;-76
2021/12/03 07:51:47;;;;;;;10.52;3.70;;;;;;;;;;5140243;27;20027;-77
2021/12/03 07:54:13;;;;;;;13.68;4.38;;;;;;;;;;5149340;27;20367;-76
2021/12/03 07:56:39;;;;;;;9.80;3.72;;;;;;;;;;5148461;27;20026;-77
2021/12/03 07:59:05;;;;;;;10.02;3.67;;;;;;;;;;5143775;27;20500;-78
2021/12/03 08:01:33;;;;;;;9.20;3.40;;;;;;;;;;5133651;27;20091;-77
2021/12/03 08:03:59;;;;;;;6.53;3.30;;;;;;;;;;5158209;27;20034;-76
2021/12/03 08:06:25;;;;;;;11.65;3.33;;;;;;;;;;5132353;27;20544;-75
2021/12/03 08:08:51;;;;;;;13.48;3.45;;;;;;;;;;5151134;27;20100;-76
2021/12/03 08:11:17;;;;;;;12.25;3.83;;;;;;;;;;5139579;27;20023;-78
2021/12/03 08:13:43;;;;;;;11.82;3.15;;;;;;;;;;5131654;27;20035;-76
2021/12/03 08:16:09;;;;;;;9.00;2.60;;;;;;;;;;5130508;27;20478;-76
2021/12/03 08:18:35;;;;;;;9.60;2.85;;;;;;;;;;5137320;27;20015;-79
2021/12/03 08:21:03;;;;;;;10.73;3.03;;;;;;;;;;5147602;27;20019;-77
2021/12/03 08:23:30;;;;;;;8.30;3.08;;;;;;;;;;5144340;27;20110;-77
2021/12/03 08:25:56;;;;;;;14.45;3.70;;;;;;;;;;5146591;27;20471;-78
2021/12/03 08:28:22;;;;;;;11.35;3.15;;;;;;;;;;5126159;27;20073;-79
2021/12/03 08:30:49;;;;;;;11.75;3.08;;;;;;;;;;5122742;27;20085;-77
2021/12/03 08:33:15;;;;;;;11.63;3.00;;;;;;;;;;5127322;27;20045;-77
2021/12/03 08:35:41;;;;;;;15.85;3.53;;;;;;;;;;5141983;27;20015;-76
2021/12/03 08:38:08;;;;;;;17.52;4.07;;;;;;;;;;5138808;27;20042;-76
2021/12/03 08:40:34;;;;;;;8.80;3.20;;;;;;;;;;5141958;27;20486;-78
2021/12/03 08:43:00;;;;;;;12.20;3.35;;;;;;;;;;5123062;27;20052;-76
2021/12/03 08:45:26;;;;;;;12.38;3.60;;;;;;;;;;5128948;27;20054;-76
2021/12/03 08:48:00;;;;;;;9.23;3.40;;;;;;;;;;5112303;27;20031;-78
2021/12/03 08:50:36;;;;;;;11.15;5.57;;;;;;;;;;5146445;27;20019;-76
2021/12/03 08:55:33;;;;;;;12.20;4.05;;;;;;;;;;5157393;27;20419;-76
2021/12/03 08:57:59;;;;;;;10.25;3.85;;;;;;;;;;5167647;27;20384;-78
2021/12/03 09:00:25;;;;;;;14.07;3.10;;;;;;;;;;5136511;27;20044;-76
2021/12/03 09:02:51;;;;;;;16.83;4.53;;;;;;;;;;5130408;27;20059;-77
2021/12/03 09:05:17;;;;;;;10.98;4.63;;;;;;;;;;5126781;28;20027;-77
2021/12/03 09:07:43;;;;;;;9.50;3.05;;;;;;;;;;5138477;27;20027;-76
2021/12/03 09:10:13;;;;;;;10.27;3.67;;;;;;;;;;5143279;27;20019;-78
2021/12/03 09:12:39;;;;;;;10.52;4.05;;;;;;;;;;5145501;27;20015;-76
2021/12/03 09:15:09;;;;;;;14.20;3.28;;;;;;;;;;5125627;27;20023;-76
2021/12/03 09:20:27;;;;;;;12.55;4.45;;;;;;;;;;5147799;27;20393;-78
2021/12/03 09:23:04;;;;;;;15.45;3.92;;;;;;;;;;5116770;28;20062;-76
2021/12/03 09:25:36;;;;;;;8.70;4.70;;;;;;;;;;5112750;27;20020;-77
2021/12/03 09:28:05;;;;;;;11.63;4.00;;;;;;;;;;5132183;27;20083;-79
2021/12/03 09:30:40;;;;;;;11.80;3.47;;;;;;;;;;5118677;27;20052;-78
2021/12/03 09:33:09;;;;;;;12.75;3.85;;;;;;;;;;5132875;27;20023;-77
2021/12/03 09:35:47;;;;;;;13.82;4.25;;;;;;;;;;5160360;27;20034;-79
2021/12/03 09:38:13;;;;;;;10.48;3.90;;;;;;;;;;5137318;27;20047;-75
2021/12/03 09:40:40;;;;;;;14.63;4.50;;;;;;;;;;5138545;27;20016;-75
2021/12/03 09:43:07;;;;;;;11.65;4.00;;;;;;;;;;5110829;28;20470;-79
2021/12/03 09:45:34;;;;;;;18.25;4.47;;;;;;;;;;5115725;27;20095;-76
2021/12/03 09:48:04;;;;;;;15.68;3.72;;;;;;;;;;5120751;27;20027;-76
2021/12/03 09:50:30;;;;;;;11.23;3.78;;;;;;;;;;5122548;27;20370;-79
2021/12/03 09:55:25;;;;;;;17.05;5.68;;;;;;;;;;5134926;27;20027;-76
2021/12/03 10:03:18;;;;;;;7.88;3.45;;;;;;;;;;5129763;27;20056;-77
2021/12/03 10:11:43;;;;;;;11.45;4.78;;;;;;;;;;5135535;27;20039;-76
2021/12/03 10:17:26;;;;;;;15.13;4.63;;;;;;;;;;5136973;27;20069;-77
2021/12/03 10:20:11;;;;;;;13.15;4.47;;;;;;;;;;5135593;27;20039;-78
2021/12/03 10:46:36;;;;;;;17.00;5.55;;;;;;;;;;5122115;27;20034;-76
2021/12/03 10:52:02;;;;;;;20.88;5.00;;;;;;;;;;5130516;27;20052;-75
2021/12/03 11:13:52;;;;;;;14.98;4.93;;;;;;;;;;5134373;27;20045;-78
2021/12/03 11:52:20;;;;;;;18.95;7.07;;;;;;;;;;5143507;27;20042;-79
2021/12/03 12:09:33;;;;;;;21.08;4.70;;;;;;;;;;5123646;27;20512;-77
2021/12/03 12:30:18;;;;;;;23.27;5.30;;;;;;;;;;5137594;27;20027;-77
2021/12/03 13:02:54;;;;;;;28.25;7.97;;;;;;;;;;5050438;28;20031;-78
2021/12/03 13:18:33;;;;;;;27.05;12.45;;;;;;;;;;5071704;28;19923;-76
2021/12/03 14:37:54;;;;;;;14.30;6.32;;;;;;;;;;5037279;28;20037;-77
2021/12/03 14:56:46;;;;;;;15.93;4.82;;;;;;;;;;5036333;28;20085;-79
2021/12/03 14:59:21;;;;;;;12.48;5.45;;;;;;;;;;5051780;28;20023;-80
2021/12/03 15:01:59;;;;;;;16.13;5.93;;;;;;;;;;5048591;28;20478;-78
2021/12/03 15:09:34;;;;;;;85.97;32.22;;;;;;;;;;5050922;28;20037;-74
2021/12/03 15:20:25;;;;;;;61.38;28.95;;;;;;;;;;5041720;28;20044;-76
2021/12/03 15:25:30;;;;;;;84.20;40.70;;;;;;;;;;5051331;28;20070;-78
2021/12/03 15:33:11;;;;;;;54.80;28.88;;;;;;;;;;5053369;28;20509;-76
2021/12/03 16:51:50;;;;;;;122.88;72.18;;;;;;;;;;5065666;28;20027;-74
2021/12/03 16:54:23;;;;;;;182.43;103.53;;;;;;;;;;5061291;28;20021;-75
2021/12/03 16:56:51;;;;;;;364.60;176.95;;;;;;;;;;5057838;28;20079;-73
2021/12/03 16:59:26;;;;;;;37.28;20.60;;;;;;;;;;5056061;28;20020;-76
2021/12/03 17:02:08;;;;;;;113.40;49.70;;;;;;;;;;5057469;28;20031;-73
2021/12/03 17:13:15;;;;;;;33.28;20.80;;;;;;;;;;5063957;28;20044;-75
2021/12/03 17:18:36;;;;;;;25.02;13.43;;;;;;;;;;5053360;28;20046;-73
2021/12/03 17:21:32;;;;;;;31.45;15.70;;;;;;;;;;5052448;28;20045;-74
2021/12/03 17:46:11;;;;;;;19.92;9.55;;;;;;;;;;5056709;28;20044;-73
2021/12/03 17:56:17;;;;;;;1400.90;671.53;;;;;;;;;;5062489;28;20098;-73
2021/12/03 17:58:57;;;;;;;547.08;268.42;;;;;;;;;;5060904;28;20017;-79
2021/12/03 18:01:38;;;;;;;414.95;171.85;;;;;;;;;;5065226;28;20017;-74
2021/12/03 18:04:09;;;;;;;403.65;173.45;;;;;;;;;;5067743;28;20025;-78
2021/12/03 18:07:07;;;;;;;1526.38;667.22;;;;;;;;;;5376100;22;20646;-74
2021/12/03 18:17:55;;;;;;;99.30;58.42;;;;;;;;;;5013619;28;20061;-76
2021/12/03 18:48:39;;;;;;;21.40;11.23;;;;;;;;;;4948690;29;20445;-78
2021/12/03 18:51:18;;;;;;;14.85;7.63;;;;;;;;;;4991814;28;20476;-74
2021/12/03 18:56:22;;;;;;;24.48;15.52;;;;;;;;;;5008020;28;20105;-75
2021/12/03 18:59:08;;;;;;;38.53;19.27;;;;;;;;;;5008687;28;20034;-75
2021/12/03 19:01:41;;;;;;;52.70;25.83;;;;;;;;;;5009483;28;20045;-75
2021/12/03 19:04:31;;;;;;;38.85;19.42;;;;;;;;;;5018186;28;20058;-74
2021/12/03 19:09:25;;;;;;;24.02;12.45;;;;;;;;;;5008759;28;20042;-75
2021/12/03 19:12:07;;;;;;;24.35;12.00;;;;;;;;;;5008507;28;20115;-75
2021/12/03 19:14:36;;;;;;;14.88;8.32;;;;;;;;;;5007470;28;20033;-75
2021/12/03 19:17:02;;;;;;;22.33;10.30;;;;;;;;;;5011713;28;20014;-78
2021/12/03 19:19:30;;;;;;;26.35;11.82;;;;;;;;;;5018191;28;20036;-74
2021/12/03 19:21:59;;;;;;;18.20;9.70;;;;;;;;;;5012225;28;20022;-76
2021/12/03 19:24:25;;;;;;;18.13;9.30;;;;;;;;;;5011607;28;20023;-75
2021/12/03 19:26:51;;;;;;;22.88;14.13;;;;;;;;;;5006706;28;20030;-74
2021/12/03 19:29:18;;;;;;;25.83;10.60;;;;;;;;;;5005617;28;20038;-77
2021/12/03 19:31:52;;;;;;;19.30;9.85;;;;;;;;;;5007626;28;20034;-77
2021/12/03 19:34:23;;;;;;;23.52;11.68;;;;;;;;;;5009327;28;20038;-74
2021/12/03 19:36:57;;;;;;;26.55;11.48;;;;;;;;;;5007900;28;20098;-75
2021/12/03 19:39:24;;;;;;;17.88;8.82;;;;;;;;;;5006599;28;20061;-73
2021/12/03 19:41:59;;;;;;;19.25;8.57;;;;;;;;;;5007785;28;20029;-74
2021/12/03 19:44:36;;;;;;;16.27;9.52;;;;;;;;;;5021414;28;20437;-77
2021/12/03 19:47:03;;;;;;;22.80;9.75;;;;;;;;;;4991508;28;20488;-77
2021/12/03 19:49:44;;;;;;;18.55;9.63;;;;;;;;;;5005030;28;20028;-75
2021/12/03 19:52:21;;;;;;;21.65;10.20;;;;;;;;;;4998363;28;20034;-74
2021/12/03 19:54:47;;;;;;;31.25;13.27;;;;;;;;;;5032390;28;20026;-75
2021/12/03 19:57:13;;;;;;;21.80;9.63;;;;;;;;;;5002627;28;20027;-75
2021/12/03 19:59:39;;;;;;;25.65;10.57;;;;;;;;;;5003207;28;20110;-76
2021/12/03 20:02:05;;;;;;;25.20;14.50;;;;;;;;;;5002162;28;20022;-78
2021/12/03 20:04:32;;;;;;;50.60;20.67;;;;;;;;;;5000667;28;20556;-77
2021/12/03 20:07:00;;;;;;;297.42;131.68;;;;;;;;;;5003080;28;20054;-76
2021/12/03 20:09:34;;;;;;;266.98;121.45;;;;;;;;;;5001340;28;20030;-76
2021/12/03 20:12:06;;;;;;;118.30;48.67;;;;;;;;;;5002653;28;20476;-78
2021/12/03 20:14:33;;;;;;;108.13;46.75;;;;;;;;;;5001589;28;20034;-77
2021/12/03 20:17:07;;;;;;;645.63;339.45;;;;;;;;;;5000243;28;20085;-76
2021/12/03 20:19:35;;;;;;;131.10;58.72;;;;;;;;;;5000525;28;20034;-75
2021/12/03 20:22:07;;;;;;;254.65;110.53;;;;;;;;;;5002387;28;20388;-76
2021/12/03 20:24:50;;;;;;;654.70;333.98;;;;;;;;;;5005840;28;20026;-76
2021/12/03 20:27:18;;;;;;;280.58;121.65;;;;;;;;;;5001339;28;20061;-74
2021/12/03 20:29:57;;;;;;;502.98;254.10;;;;;;;;;;5001086;28;20388;-75
2021/12/03 20:35:27;;;;;;;157.23;79.47;;;;;;;;;;4982479;28;20469;-75
2021/12/03 20:37:55;;;;;;;71.97;45.95;;;;;;;;;;4997855;28;20089;-79
2021/12/03 20:40:27;;;;;;;48.00;37.03;;;;;;;;;;4996174;28;20018;-76
2021/12/03 21:09:27;;;;;;;34.58;12.05;;;;;;;;;;5000443;28;20068;-77
2021/12/03 21:11:58;;;;;;;22.40;10.80;;;;;;;;;;5001003;28;20018;-74
2021/12/03 21:14:30;;;;;;;32.92;19.02;;;;;;;;;;5000388;28;20465;-76
2021/12/03 21:17:49;;;;;;;28.13;19.45;;;;;;;;;;4984243;28;20027;-75
2021/12/03 21:20:00;;;;;;;36.22;20.70;;;;;;;;;;4992919;28;20129;-75
2021/12/03 21:22:30;;;;;;;21.88;12.25;;;;;;;;;;4998746;28;20057;-77
2021/12/03 21:25:01;;;;;;;23.92;12.25;;;;;;;;;;4998869;28;20081;-76
2021/12/03 21:27:53;;;;;;;28.75;11.60;;;;;;;;;;4997659;28;20053;-77
2021/12/03 21:38:23;;;;;;;26.05;15.02;;;;;;;;;;5004408;28;20041;-75
2021/12/03 21:40:59;;;;;;;26.48;13.70;;;;;;;;;;5003509;28;20033;-75
2021/12/03 21:43:26;;;;;;;17.80;10.32;;;;;;;;;;5003362;28;20100;-76
2021/12/03 21:45:53;;;;;;;20.05;11.15;;;;;;;;;;5004191;28;20018;-74
2021/12/03 21:48:19;;;;;;;19.75;11.77;;;;;;;;;;5003076;28;20029;-76
2021/12/03 21:50:46;;;;;;;27.33;15.85;;;;;;;;;;5002728;28;20026;-77
2021/12/03 21:53:12;;;;;;;21.88;10.95;;;;;;;;;;5002755;28;20022;-74
2021/12/03 21:55:42;;;;;;;43.13;26.08;;;;;;;;;;5002502;28;20030;-76
2021/12/03 21:58:08;;;;;;;18.30;8.55;;;;;;;;;;5002214;28;20167;-77
2021/12/03 22:00:34;;;;;;;22.88;8.95;;;;;;;;;;5002699;28;20030;-76
2021/12/03 22:03:00;;;;;;;33.28;15.75;;;;;;;;;;5004041;28;20074;-74
2021/12/03 22:05:27;;;;;;;22.33;15.45;;;;;;;;;;5001728;28;20061;-74
2021/12/03 22:07:53;;;;;;;27.35;16.42;;;;;;;;;;5001832;28;20050;-77
2021/12/03 22:10:19;;;;;;;39.05;17.02;;;;;;;;;;5001684;28;20480;-76
2021/12/03 22:12:46;;;;;;;24.45;10.90;;;;;;;;;;5004348;28;20445;-75
2021/12/03 22:15:12;;;;;;;19.92;8.02;;;;;;;;;;5002620;28;20022;-76
2021/12/03 22:17:38;;;;;;;25.23;10.95;;;;;;;;;;5001648;28;20530;-76
2021/12/03 22:20:06;;;;;;;17.58;8.60;;;;;;;;;;5002173;28;20465;-75
2021/12/03 22:22:32;;;;;;;35.50;17.55;;;;;;;;;;5003163;28;20026;-76
2021/12/03 22:24:58;;;;;;;25.95;13.60;;;;;;;;;;5002578;28;20033;-74
2021/12/03 22:27:25;;;;;;;27.13;16.45;;;;;;;;;;5001854;28;20081;-76
2021/12/03 22:29:51;;;;;;;22.27;15.40;;;;;;;;;;5002073;28;20030;-77
2021/12/03 22:32:18;;;;;;;18.27;14.55;;;;;;;;;;5000937;28;20065;-75
2021/12/03 22:34:44;;;;;;;22.17;11.63;;;;;;;;;;5001969;28;20026;-77
2021/12/03 22:37:10;;;;;;;15.73;8.30;;;;;;;;;;5001954;28;20082;-77
2021/12/03 22:39:37;;;;;;;18.52;10.07;;;;;;;;;;5001658;28;20030;-75
2021/12/03 22:42:03;;;;;;;16.98;8.88;;;;;;;;;;5001749;28;20057;-74
2021/12/03 22:44:29;;;;;;;21.67;10.35;;;;;;;;;;5002331;28;20033;-77
2021/12/03 22:49:39;;;;;;;24.25;14.15;;;;;;;;;;5002379;28;20026;-76
2021/12/03 22:52:09;;;;;;;29.45;11.98;;;;;;;;;;5002901;28;20049;-76